sensor_id;sensor_type;location;lat;lon;timestamp;pressure;altitude;pressure_sealevel;temperature;humidity
77537;BME280;67783;51.656;16.106;2024-01-30T00:00:24;103287.63;;;4.41;61.00
77537;BME280;67783;51.656;16.106;2024-01-30T00:03:30;103290.25;;;4.44;60.34
77537;BME280;67783;51.656;16.106;2024-01-30T00:06:32;103298.20;;;4.47;60.25
77537;BME280;67783;51.656;16.106;2024-01-30T00:09:41;103290.27;;;4.41;61.23
77537;BME280;67783;51.656;16.106;2024-01-30T00:12:43;103293.82;;;4.42;60.48
77537;BME280;67783;51.656;16.106;2024-01-30T00:15:44;103292.05;;;4.41;60.84
77537;BME280;67783;51.656;16.106;2024-01-30T00:18:46;103297.34;;;4.47;60.23
77537;BME280;67783;51.656;16.106;2024-01-30T00:21:47;103297.36;;;4.42;60.52
77537;BME280;67783;51.656;16.106;2024-01-30T00:24:49;103293.82;;;4.40;60.35
77537;BME280;67783;51.656;16.106;2024-01-30T00:27:51;103291.21;;;4.34;60.72
77537;BME280;67783;51.656;16.106;2024-01-30T00:30:56;103295.64;;;4.32;61.67
77537;BME280;67783;51.656;16.106;2024-01-30T00:33:58;103296.53;;;4.33;60.70
77537;BME280;67783;51.656;16.106;2024-01-30T00:36:59;103300.06;;;4.33;60.83
77537;BME280;67783;51.656;16.106;2024-01-30T00:40:01;103295.62;;;4.35;60.33
77537;BME280;67783;51.656;16.106;2024-01-30T00:43:03;103293.90;;;4.30;60.61
77537;BME280;67783;51.656;16.106;2024-01-30T00:46:05;103289.47;;;4.27;60.32
77537;BME280;67783;51.656;16.106;2024-01-30T00:49:06;103290.39;;;4.18;60.59
77537;BME280;67783;51.656;16.106;2024-01-30T00:52:11;103286.00;;;4.16;61.50
77537;BME280;67783;51.656;16.106;2024-01-30T00:55:13;103282.45;;;4.15;60.67
77537;BME280;67783;51.656;16.106;2024-01-30T00:58:15;103284.24;;;4.12;61.15
77537;BME280;67783;51.656;16.106;2024-01-30T01:01:17;103282.48;;;4.14;60.71
77537;BME280;67783;51.656;16.106;2024-01-30T01:04:18;103281.60;;;4.07;61.29
77537;BME280;67783;51.656;16.106;2024-01-30T01:07:32;103282.55;;;3.97;62.28
77537;BME280;67783;51.656;16.106;2024-01-30T01:10:33;103282.55;;;3.96;61.24
77537;BME280;67783;51.656;16.106;2024-01-30T01:13:35;103281.66;;;3.94;61.31
77537;BME280;67783;51.656;16.106;2024-01-30T01:16:36;103280.79;;;3.96;60.89
77537;BME280;67783;51.656;16.106;2024-01-30T01:19:38;103280.79;;;3.95;61.09
77537;BME280;67783;51.656;16.106;2024-01-30T01:22:40;103284.33;;;3.97;60.92
77537;BME280;67783;51.656;16.106;2024-01-30T01:25:43;103271.07;;;3.92;61.18
77537;BME280;67783;51.656;16.106;2024-01-30T01:28:47;103281.71;;;3.89;62.00
77537;BME280;67783;51.656;16.106;2024-01-30T01:31:49;103271.98;;;3.88;61.28
77537;BME280;67783;51.656;16.106;2024-01-30T01:34:51;103278.16;;;3.86;61.66
77537;BME280;67783;51.656;16.106;2024-01-30T01:37:53;103277.26;;;3.90;61.10
77537;BME280;67783;51.656;16.106;2024-01-30T01:41:01;103279.95;;;3.88;61.27
77537;BME280;67783;51.656;16.106;2024-01-30T01:44:09;103282.58;;;3.87;61.95
77537;BME280;67783;51.656;16.106;2024-01-30T01:47:11;103274.65;;;3.84;61.29
77537;BME280;67783;51.656;16.106;2024-01-30T01:50:16;103272.90;;;3.73;61.95
77537;BME280;67783;51.656;16.106;2024-01-30T01:53:20;103277.34;;;3.71;61.54
77537;BME280;67783;51.656;16.106;2024-01-30T01:56:22;103272.05;;;3.65;61.65
77537;BME280;67783;51.656;16.106;2024-01-30T01:59:29;103269.44;;;3.59;62.74
77537;BME280;67783;51.656;16.106;2024-01-30T02:02:35;103274.73;;;3.59;61.58
77537;BME280;67783;51.656;16.106;2024-01-30T02:05:38;103275.63;;;3.55;62.08
77537;BME280;67783;51.656;16.106;2024-01-30T02:08:41;103283.55;;;3.61;61.71
77537;BME280;67783;51.656;16.106;2024-01-30T02:11:43;103272.09;;;3.59;61.98
77537;BME280;67783;51.656;16.106;2024-01-30T02:14:50;103271.22;;;3.54;63.00
77537;BME280;67783;51.656;16.106;2024-01-30T02:17:51;103271.20;;;3.53;62.00
77537;BME280;67783;51.656;16.106;2024-01-30T02:20:56;103262.39;;;3.46;62.44
77537;BME280;67783;51.656;16.106;2024-01-30T02:24:00;103258.85;;;3.44;61.86
77537;BME280;67783;51.656;16.106;2024-01-30T02:27:03;103259.75;;;3.42;62.13
77537;BME280;67783;51.656;16.106;2024-01-30T02:30:11;103256.21;;;3.37;63.05
77537;BME280;67783;51.656;16.106;2024-01-30T02:33:13;103254.45;;;3.37;62.09
77537;BME280;67783;51.656;16.106;2024-01-30T02:36:15;103255.34;;;3.32;62.69
77537;BME280;67783;51.656;16.106;2024-01-30T02:39:16;103250.91;;;3.32;62.09
77537;BME280;67783;51.656;16.106;2024-01-30T02:42:18;103250.94;;;3.29;62.50
77537;BME280;67783;51.656;16.106;2024-01-30T02:45:20;103255.34;;;3.32;62.16
77537;BME280;67783;51.656;16.106;2024-01-30T02:48:21;103247.44;;;3.27;62.48
77537;BME280;67783;51.656;16.106;2024-01-30T02:51:26;103257.13;;;3.23;63.64
77537;BME280;67783;51.656;16.106;2024-01-30T02:54:28;103263.32;;;3.24;62.50
77537;BME280;67783;51.656;16.106;2024-01-30T02:57:31;103258.01;;;3.19;63.01
77537;BME280;67783;51.656;16.106;2024-01-30T03:00:33;103257.13;;;3.19;62.40
77537;BME280;67783;51.656;16.106;2024-01-30T03:03:35;103254.52;;;3.14;62.70
77537;BME280;67783;51.656;16.106;2024-01-30T03:06:47;103258.91;;;3.12;63.68
77537;BME280;67783;51.656;16.106;2024-01-30T03:09:49;103246.55;;;3.17;62.43
77537;BME280;67783;51.656;16.106;2024-01-30T03:12:50;103243.91;;;3.13;62.97
77537;BME280;67783;51.656;16.106;2024-01-30T03:15:52;103254.51;;;3.13;62.64
77537;BME280;67783;51.656;16.106;2024-01-30T03:18:53;103254.49;;;3.07;62.81
77537;BME280;67783;51.656;16.106;2024-01-30T03:21:55;103252.75;;;3.06;62.57
77537;BME280;67783;51.656;16.106;2024-01-30T03:24:56;103244.81;;;3.01;62.92
77537;BME280;67783;51.656;16.106;2024-01-30T03:28:02;103255.40;;;3.00;63.66
77537;BME280;67783;51.656;16.106;2024-01-30T03:31:04;103251.00;;;3.02;62.66
77537;BME280;67783;51.656;16.106;2024-01-30T03:34:06;103241.26;;;2.99;63.19
77537;BME280;67783;51.656;16.106;2024-01-30T03:37:10;103245.69;;;2.96;63.00
77537;BME280;67783;51.656;16.106;2024-01-30T03:40:12;103240.41;;;2.85;63.41
77537;BME280;67783;51.656;16.106;2024-01-30T03:43:23;103242.15;;;2.78;64.32
77537;BME280;67783;51.656;16.106;2024-01-30T03:46:24;103240.39;;;2.77;63.25
77537;BME280;67783;51.656;16.106;2024-01-30T03:49:26;103240.41;;;2.73;63.96
77537;BME280;67783;51.656;16.106;2024-01-30T03:52:27;103240.39;;;2.74;63.59
77537;BME280;67783;51.656;16.106;2024-01-30T03:55:29;103242.15;;;2.71;63.78
77537;BME280;67783;51.656;16.106;2024-01-30T03:58:30;103249.22;;;2.73;63.16
77537;BME280;67783;51.656;16.106;2024-01-30T04:01:32;103249.23;;;2.79;63.31
77537;BME280;67783;51.656;16.106;2024-01-30T04:04:38;103250.11;;;2.85;64.08
77537;BME280;67783;51.656;16.106;2024-01-30T04:07:39;103241.27;;;2.92;62.95
77537;BME280;67783;51.656;16.106;2024-01-30T04:10:41;103239.50;;;2.95;63.27
77537;BME280;67783;51.656;16.106;2024-01-30T04:13:42;103246.57;;;3.01;62.75
77537;BME280;67783;51.656;16.106;2024-01-30T04:16:44;103262.45;;;3.04;62.90
77537;BME280;67783;51.656;16.106;2024-01-30T04:19:46;103247.46;;;3.06;62.81
77537;BME280;67783;51.656;16.106;2024-01-30T04:22:47;103243.90;;;3.07;63.00
77537;BME280;67783;51.656;16.106;2024-01-30T04:25:53;103236.85;;;3.10;63.60
77537;BME280;67783;51.656;16.106;2024-01-30T04:28:54;103236.83;;;3.18;62.73
77537;BME280;67783;51.656;16.106;2024-01-30T04:31:56;103240.34;;;3.24;62.96
77537;BME280;67783;51.656;16.106;2024-01-30T04:34:58;103245.64;;;3.35;62.44
77537;BME280;67783;51.656;16.106;2024-01-30T04:37:59;103250.04;;;3.38;62.55
77537;BME280;67783;51.656;16.106;2024-01-30T04:41:01;103255.32;;;3.41;62.37
77537;BME280;67783;51.656;16.106;2024-01-30T04:44:02;103255.34;;;3.42;62.41
77537;BME280;67783;51.656;16.106;2024-01-30T04:47:08;103257.09;;;3.42;62.97
77537;BME280;67783;51.656;16.106;2024-01-30T04:50:13;103245.64;;;3.35;62.73
77537;BME280;67783;51.656;16.106;2024-01-30T04:53:14;103250.91;;;3.32;62.83
77537;BME280;67783;51.656;16.106;2024-01-30T04:56:16;103253.58;;;3.34;62.46
77537;BME280;67783;51.656;16.106;2024-01-30T04:59:18;103247.41;;;3.30;62.72
77537;BME280;67783;51.656;16.106;2024-01-30T05:02:28;103243.86;;;3.28;63.38
77537;BME280;67783;51.656;16.106;2024-01-30T05:05:30;103238.58;;;3.31;62.73
77537;BME280;67783;51.656;16.106;2024-01-30T05:08:31;103241.23;;;3.25;63.26
77537;BME280;67783;51.656;16.106;2024-01-30T05:11:40;103237.67;;;3.32;62.71
77537;BME280;67783;51.656;16.106;2024-01-30T05:14:41;103237.66;;;3.37;62.74
77537;BME280;67783;51.656;16.106;2024-01-30T05:17:49;103235.88;;;3.46;62.92
77537;BME280;67783;51.656;16.106;2024-01-30T05:20:51;103229.63;;;3.56;62.27
77537;BME280;67783;51.656;16.106;2024-01-30T05:23:52;103227.88;;;3.58;62.39
77537;BME280;67783;51.656;16.106;2024-01-30T05:26:54;103227.83;;;3.64;62.06
77537;BME280;67783;51.656;16.106;2024-01-30T05:29:55;103230.53;;;3.60;62.25
77537;BME280;67783;51.656;16.106;2024-01-30T05:32:57;103234.91;;;3.65;62.03
77537;BME280;67783;51.656;16.106;2024-01-30T05:35:59;103249.04;;;3.70;62.05
77537;BME280;67783;51.656;16.106;2024-01-30T05:39:04;103242.84;;;3.75;62.04
77537;BME280;67783;51.656;16.106;2024-01-30T05:42:06;103246.33;;;3.86;61.79
77537;BME280;67783;51.656;16.106;2024-01-30T05:45:08;103242.77;;;3.91;61.80
77537;BME280;67783;51.656;16.106;2024-01-30T05:48:10;103244.49;;;3.98;61.60
77537;BME280;67783;51.656;16.106;2024-01-30T05:51:11;103245.38;;;4.00;61.54
77537;BME280;67783;51.656;16.106;2024-01-30T05:54:13;103251.55;;;4.05;61.43
77537;BME280;67783;51.656;16.106;2024-01-30T05:57:14;103251.54;;;4.08;61.31
77537;BME280;67783;51.656;16.106;2024-01-30T06:00:19;103250.65;;;4.08;61.15
77537;BME280;67783;51.656;16.106;2024-01-30T06:03:21;103254.19;;;4.10;61.18
77537;BME280;67783;51.656;16.106;2024-01-30T06:06:23;103248.91;;;3.98;61.31
77537;BME280;67783;51.656;16.106;2024-01-30T06:09:24;103249.84;;;3.91;61.38
77537;BME280;67783;51.656;16.106;2024-01-30T06:12:26;103247.27;;;3.76;61.76
77537;BME280;67783;51.656;16.106;2024-01-30T06:15:28;103252.59;;;3.71;61.74
77537;BME280;67783;51.656;16.106;2024-01-30T06:18:31;103250.88;;;3.59;61.99
77537;BME280;67783;51.656;16.106;2024-01-30T06:21:35;103254.41;;;3.52;62.62
77537;BME280;67783;51.656;16.106;2024-01-30T06:24:39;103246.47;;;3.51;62.20
77537;BME280;67783;51.656;16.106;2024-01-30T06:27:42;103246.50;;;3.48;62.50
77537;BME280;67783;51.656;16.106;2024-01-30T06:30:44;103250.00;;;3.50;62.26
77537;BME280;67783;51.656;16.106;2024-01-30T06:33:49;103244.71;;;3.47;62.43
77537;BME280;67783;51.656;16.106;2024-01-30T06:36:56;103248.23;;;3.49;62.81
77537;BME280;67783;51.656;16.106;2024-01-30T06:39:58;103244.68;;;3.54;62.25
77537;BME280;67783;51.656;16.106;2024-01-30T06:42:59;103249.09;;;3.58;62.30
77537;BME280;67783;51.656;16.106;2024-01-30T06:46:01;103252.60;;;3.66;62.01
77537;BME280;67783;51.656;16.106;2024-01-30T06:49:03;103243.77;;;3.67;62.13
77537;BME280;67783;51.656;16.106;2024-01-30T06:52:06;103246.41;;;3.66;62.06
77537;BME280;67783;51.656;16.106;2024-01-30T06:55:08;103242.02;;;3.63;62.27
77537;BME280;67783;51.656;16.106;2024-01-30T06:58:12;103247.30;;;3.66;62.43
77537;BME280;67783;51.656;16.106;2024-01-30T07:01:14;103238.44;;;3.70;62.09
77537;BME280;67783;51.656;16.106;2024-01-30T07:04:16;103245.52;;;3.71;62.29
77537;BME280;67783;51.656;16.106;2024-01-30T07:07:19;103243.70;;;3.78;62.07
77537;BME280;67783;51.656;16.106;2024-01-30T07:10:21;103252.52;;;3.82;62.15
77537;BME280;67783;51.656;16.106;2024-01-30T07:13:34;103245.44;;;3.87;62.62
77537;BME280;67783;51.656;16.106;2024-01-30T07:16:36;103252.48;;;3.97;61.91
77537;BME280;67783;51.656;16.106;2024-01-30T07:19:37;103252.47;;;4.01;62.12
77537;BME280;67783;51.656;16.106;2024-01-30T07:36:55;103263.87;;;4.17;62.65
77537;BME280;67783;51.656;16.106;2024-01-30T07:40:15;103262.09;;;4.22;62.77
77537;BME280;67783;51.656;16.106;2024-01-30T07:44:16;103263.80;;;4.29;63.37
77537;BME280;67783;51.656;16.106;2024-01-30T07:47:17;103262.85;;;4.36;63.46
77537;BME280;67783;51.656;16.106;2024-01-30T07:54:27;103268.12;;;4.45;62.94
77537;BME280;67783;51.656;16.106;2024-01-30T08:01:23;103262.70;;;4.63;61.71
77537;BME280;67783;51.656;16.106;2024-01-30T08:11:34;103256.88;;;5.18;60.79
77537;BME280;67783;51.656;16.106;2024-01-30T08:15:50;103246.02;;;5.42;60.47
77537;BME280;67783;51.656;16.106;2024-01-30T08:18:21;103247.51;;;5.65;59.91
77537;BME280;67783;51.656;16.106;2024-01-30T08:21:34;103242.84;;;5.86;59.61
77537;BME280;67783;51.656;16.106;2024-01-30T08:28:36;103243.18;;;6.26;59.06
77537;BME280;67783;51.656;16.106;2024-01-30T08:35:52;103113.32;;;5.84;58.54
77537;BME280;67783;51.656;16.106;2024-01-30T08:42:27;103246.85;;;6.76;58.28
77537;BME280;67783;51.656;16.106;2024-01-30T08:45:46;103255.66;;;6.79;57.02
77537;BME280;67783;51.656;16.106;2024-01-30T08:49:26;103244.86;;;6.88;57.12
77537;BME280;67783;51.656;16.106;2024-01-30T08:52:40;103242.10;;;6.94;56.59
77537;BME280;67783;51.656;16.106;2024-01-30T08:55:53;103245.44;;;7.06;57.91
77537;BME280;67783;51.656;16.106;2024-01-30T08:59:22;103244.23;;;7.23;57.68
77537;BME280;67783;51.656;16.106;2024-01-30T09:02:38;103238.70;;;7.34;57.03
77537;BME280;67783;51.656;16.106;2024-01-30T09:09:35;103233.64;;;7.65;55.18
77537;BME280;67783;51.656;16.106;2024-01-30T09:13:20;103233.41;;;7.75;54.16
77537;BME280;67783;51.656;16.106;2024-01-30T09:16:44;103239.28;;;7.93;54.71
77537;BME280;67783;51.656;16.106;2024-01-30T09:23:29;103227.95;;;8.21;54.74
77537;BME280;67783;51.656;16.106;2024-01-30T09:33:46;103226.98;;;8.64;54.57
77537;BME280;67783;51.656;16.106;2024-01-30T09:44:18;103223.80;;;8.84;50.95
77537;BME280;67783;51.656;16.106;2024-01-30T09:47:38;103212.09;;;8.89;53.95
77537;BME280;67783;51.656;16.106;2024-01-30T09:51:03;103219.23;;;8.89;53.32
77537;BME280;67783;51.656;16.106;2024-01-30T09:54:26;103220.24;;;8.83;53.00
77537;BME280;67783;51.656;16.106;2024-01-30T09:58:15;103216.69;;;8.83;51.16
77537;BME280;67783;51.656;16.106;2024-01-30T10:01:24;103212.09;;;8.88;50.71
77537;BME280;67783;51.656;16.106;2024-01-30T10:04:36;103213.63;;;8.98;50.89
77537;BME280;67783;51.656;16.106;2024-01-30T10:11:15;103200.74;;;9.12;52.29
77537;BME280;67783;51.656;16.106;2024-01-30T10:25:16;103193.93;;;9.33;51.66
77537;BME280;67783;51.656;16.106;2024-01-30T10:28:31;103185.88;;;9.34;49.98
77537;BME280;67783;51.656;16.106;2024-01-30T10:31:35;103181.14;;;9.44;52.53
77537;BME280;67783;51.656;16.106;2024-01-30T10:34:46;103175.56;;;9.51;51.40
77537;BME280;67783;51.656;16.106;2024-01-30T10:37:52;103182.49;;;9.58;49.81
77537;BME280;67783;51.656;16.106;2024-01-30T10:41:00;103175.82;;;9.73;51.19
77537;BME280;67783;51.656;16.106;2024-01-30T10:47:31;103166.47;;;9.86;51.02
77537;BME280;67783;51.656;16.106;2024-01-30T10:50:38;103160.79;;;9.97;51.66
77537;BME280;67783;51.656;16.106;2024-01-30T10:53:44;103166.15;;;9.97;51.38
77537;BME280;67783;51.656;16.106;2024-01-30T10:58:02;103162.17;;;10.10;51.36
77537;BME280;67783;51.656;16.106;2024-01-30T11:01:29;103152.13;;;10.16;51.31
77537;BME280;67783;51.656;16.106;2024-01-30T11:11:11;103133.19;;;10.49;51.24
77537;BME280;67783;51.656;16.106;2024-01-30T11:14:13;103137.48;;;10.54;51.30
77537;BME280;67783;51.656;16.106;2024-01-30T11:17:27;103130.23;;;10.56;49.38
77537;BME280;67783;51.656;16.106;2024-01-30T11:20:30;103131.04;;;10.60;50.52
77537;BME280;67783;51.656;16.106;2024-01-30T11:23:38;103128.36;;;10.60;50.69
77537;BME280;67783;51.656;16.106;2024-01-30T11:26:42;103130.69;;;10.69;51.00
77537;BME280;67783;51.656;16.106;2024-01-30T11:29:49;103129.81;;;10.69;50.66
77537;BME280;67783;51.656;16.106;2024-01-30T11:36:11;103122.01;;;10.87;51.16
77537;BME280;67783;51.656;16.106;2024-01-30T11:50:08;103103.63;;;11.01;49.21
77537;BME280;67783;51.656;16.106;2024-01-30T11:53:38;103102.45;;;11.08;49.57
77537;BME280;67783;51.656;16.106;2024-01-30T11:56:43;103096.84;;;11.15;48.52
77537;BME280;67783;51.656;16.106;2024-01-30T11:59:45;103090.92;;;11.30;49.91
77537;BME280;67783;51.656;16.106;2024-01-30T12:03:09;103091.67;;;11.33;49.41
77537;BME280;67783;51.656;16.106;2024-01-30T12:06:23;103083.27;;;11.42;48.83
77537;BME280;67783;51.656;16.106;2024-01-30T12:09:27;103089.84;;;11.57;48.91
77537;BME280;67783;51.656;16.106;2024-01-30T12:16:48;103082.36;;;11.65;48.04
77537;BME280;67783;51.656;16.106;2024-01-30T12:30:41;103067.92;;;12.13;46.77
77537;BME280;67783;51.656;16.106;2024-01-30T12:34:04;103062.22;;;12.20;47.14
77537;BME280;67783;51.656;16.106;2024-01-30T12:37:12;103057.57;;;12.24;44.16
77537;BME280;67783;51.656;16.106;2024-01-30T12:40:22;103051.72;;;12.34;47.25
77537;BME280;67783;51.656;16.106;2024-01-30T12:43:50;103056.91;;;12.39;46.36
77537;BME280;67783;51.656;16.106;2024-01-30T12:47:16;103054.95;;;12.42;46.46
77537;BME280;67783;51.656;16.106;2024-01-30T12:50:20;103047.42;;;12.50;42.82
77537;BME280;67783;51.656;16.106;2024-01-30T12:53:23;103044.42;;;12.58;46.10
77537;BME280;67783;51.656;16.106;2024-01-30T12:56:24;103047.03;;;12.60;45.26
77537;BME280;67783;51.656;16.106;2024-01-30T12:59:26;103045.49;;;12.74;46.61
77537;BME280;67783;51.656;16.106;2024-01-30T13:02:35;103048.87;;;12.79;45.90
77537;BME280;67783;51.656;16.106;2024-01-30T13:05:54;103051.13;;;12.68;45.15
77537;BME280;67783;51.656;16.106;2024-01-30T13:12:47;103048.20;;;12.54;44.99
77537;BME280;67783;51.656;16.106;2024-01-30T13:16:08;103044.42;;;12.58;47.20
77537;BME280;67783;51.656;16.106;2024-01-30T13:19:07;103051.69;;;12.56;47.19
77537;BME280;67783;51.656;16.106;2024-01-30T13:22:11;103046.44;;;12.53;46.26
77537;BME280;67783;51.656;16.106;2024-01-30T13:25:27;103040.04;;;12.56;47.84
77537;BME280;67783;51.656;16.106;2024-01-30T13:28:37;103038.23;;;12.56;47.82
77537;BME280;67783;51.656;16.106;2024-01-30T13:31:46;103031.16;;;12.54;47.22
77537;BME280;67783;51.656;16.106;2024-01-30T13:34:48;103034.59;;;12.57;47.93
77537;BME280;67783;51.656;16.106;2024-01-30T13:38:03;103031.27;;;12.50;47.86
77537;BME280;67783;51.656;16.106;2024-01-30T13:41:26;103028.95;;;12.43;46.17
77537;BME280;67783;51.656;16.106;2024-01-30T13:48:58;103026.05;;;12.27;45.36
77537;BME280;67783;51.656;16.106;2024-01-30T13:51:44;103026.32;;;12.21;45.71
77537;BME280;67783;51.656;16.106;2024-01-30T13:55:00;103014.49;;;12.25;47.65
77537;BME280;67783;51.656;16.106;2024-01-30T13:58:18;103025.44;;;12.21;47.48
77537;BME280;67783;51.656;16.106;2024-01-30T14:01:25;103015.63;;;12.20;46.90
77537;BME280;67783;51.656;16.106;2024-01-30T14:04:50;103012.24;;;12.15;45.93
77537;BME280;67783;51.656;16.106;2024-01-30T14:11:33;103009.01;;;12.07;47.80
77537;BME280;67783;51.656;16.106;2024-01-30T14:14:56;102999.46;;;11.99;47.73
77537;BME280;67783;51.656;16.106;2024-01-30T14:18:09;103000.87;;;11.88;47.37
77537;BME280;67783;51.656;16.106;2024-01-30T14:21:29;103009.47;;;11.96;48.32
77537;BME280;67783;51.656;16.106;2024-01-30T14:24:48;103007.77;;;11.93;48.21
77537;BME280;67783;51.656;16.106;2024-01-30T14:28:10;103005.27;;;11.89;48.11
77537;BME280;67783;51.656;16.106;2024-01-30T14:31:28;103003.55;;;11.88;48.28
77537;BME280;67783;51.656;16.106;2024-01-30T14:35:02;103001.41;;;11.74;48.32
77537;BME280;67783;51.656;16.106;2024-01-30T14:41:33;103001.24;;;11.55;48.49
77537;BME280;67783;51.656;16.106;2024-01-30T14:48:12;103007.62;;;11.53;48.99
77537;BME280;67783;51.656;16.106;2024-01-30T14:51:22;103016.62;;;11.52;48.96
77537;BME280;67783;51.656;16.106;2024-01-30T14:54:49;103013.13;;;11.50;48.92
77537;BME280;67783;51.656;16.106;2024-01-30T14:57:59;103006.19;;;11.44;48.51
77537;BME280;67783;51.656;16.106;2024-01-30T15:04:45;103015.47;;;11.36;49.14
77537;BME280;67783;51.656;16.106;2024-01-30T15:15:02;103021.80;;;11.11;48.49
77537;BME280;67783;51.656;16.106;2024-01-30T15:18:35;103031.16;;;11.01;48.36
77537;BME280;67783;51.656;16.106;2024-01-30T15:21:48;103027.76;;;10.96;49.34
77537;BME280;67783;51.656;16.106;2024-01-30T15:24:59;103016.36;;;10.90;49.11
77537;BME280;67783;51.656;16.106;2024-01-30T15:28:33;103022.73;;;10.87;48.72
77537;BME280;67783;51.656;16.106;2024-01-30T15:31:40;103028.09;;;10.87;48.49
77537;BME280;67783;51.656;16.106;2024-01-30T15:34:42;103013.74;;;10.88;49.00
77537;BME280;67783;51.656;16.106;2024-01-30T15:37:43;103016.48;;;10.87;48.85
77537;BME280;67783;51.656;16.106;2024-01-30T15:40:48;103022.73;;;10.87;49.11
77537;BME280;67783;51.656;16.106;2024-01-30T15:47:14;103013.26;;;10.77;48.95
77537;BME280;67783;51.656;16.106;2024-01-30T15:50:30;103011.63;;;10.73;48.15
77537;BME280;67783;51.656;16.106;2024-01-30T15:53:49;103022.30;;;10.75;49.21
77537;BME280;67783;51.656;16.106;2024-01-30T15:56:51;103021.53;;;10.71;49.17
77537;BME280;67783;51.656;16.106;2024-01-30T15:59:56;103015.47;;;10.66;48.45
77537;BME280;67783;51.656;16.106;2024-01-30T16:02:58;103008.41;;;10.63;49.32
77537;BME280;67783;51.656;16.106;2024-01-30T16:06:05;103024.70;;;10.57;49.20
77537;BME280;67783;51.656;16.106;2024-01-30T16:09:26;103023.07;;;10.53;48.54
77537;BME280;67783;51.656;16.106;2024-01-30T16:12:48;103025.91;;;10.49;49.42
77537;BME280;67783;51.656;16.106;2024-01-30T16:16:03;103027.11;;;10.40;49.49
77537;BME280;67783;51.656;16.106;2024-01-30T16:19:30;103039.15;;;10.29;49.55
77537;BME280;67783;51.656;16.106;2024-01-30T16:26:15;103028.15;;;10.10;49.66
77537;BME280;67783;51.656;16.106;2024-01-30T16:29:29;103032.72;;;10.06;49.89
77537;BME280;67783;51.656;16.106;2024-01-30T16:32:48;103025.02;;;9.97;49.95
77537;BME280;67783;51.656;16.106;2024-01-30T16:36:12;103013.61;;;9.91;50.04
77537;BME280;67783;51.656;16.106;2024-01-30T16:39:29;103027.00;;;9.91;49.78
77537;BME280;67783;51.656;16.106;2024-01-30T16:46:00;103017.02;;;9.96;49.61
77537;BME280;67783;51.656;16.106;2024-01-30T16:49:05;103011.63;;;9.97;48.67
77537;BME280;67783;51.656;16.106;2024-01-30T16:52:07;103015.95;;;10.01;49.36
77537;BME280;67783;51.656;16.106;2024-01-30T16:55:08;103018.51;;;10.04;48.77
77537;BME280;67783;51.656;16.106;2024-01-30T16:58:10;103011.12;;;10.11;49.20
77537;BME280;67783;51.656;16.106;2024-01-30T17:01:12;103010.12;;;10.15;49.15
77537;BME280;67783;51.656;16.106;2024-01-30T17:04:17;103001.89;;;10.21;49.10
77537;BME280;67783;51.656;16.106;2024-01-30T17:07:23;103005.45;;;10.22;49.04
77537;BME280;67783;51.656;16.106;2024-01-30T17:10:36;102994.71;;;10.22;47.61
77537;BME280;67783;51.656;16.106;2024-01-30T17:17:17;103000.20;;;10.18;48.77
77537;BME280;67783;51.656;16.106;2024-01-30T17:20:35;103006.60;;;10.13;48.72
77537;BME280;67783;51.656;16.106;2024-01-30T17:23:47;103010.20;;;10.12;47.75
77537;BME280;67783;51.656;16.106;2024-01-30T17:26:48;103007.55;;;10.10;48.78
77537;BME280;67783;51.656;16.106;2024-01-30T17:29:51;103010.62;;;10.00;48.51
77537;BME280;67783;51.656;16.106;2024-01-30T17:32:52;103007.98;;;9.98;49.05
77537;BME280;67783;51.656;16.106;2024-01-30T17:35:54;103000.20;;;9.91;48.75
77537;BME280;67783;51.656;16.106;2024-01-30T17:38:55;103001.09;;;9.91;49.04
77537;BME280;67783;51.656;16.106;2024-01-30T17:41:57;103003.88;;;9.88;48.96
77537;BME280;67783;51.656;16.106;2024-01-30T17:45:06;103008.40;;;9.86;48.12
77537;BME280;67783;51.656;16.106;2024-01-30T17:48:08;103013.74;;;9.86;49.07
77537;BME280;67783;51.656;16.106;2024-01-30T17:51:09;103016.65;;;9.80;48.92
77537;BME280;67783;51.656;16.106;2024-01-30T17:54:11;103016.69;;;9.79;49.20
77537;BME280;67783;51.656;16.106;2024-01-30T17:57:12;103019.52;;;9.74;49.22
77537;BME280;67783;51.656;16.106;2024-01-30T18:00:23;103020.75;;;9.64;48.83
77537;BME280;67783;51.656;16.106;2024-01-30T18:03:26;103021.70;;;9.61;49.49
77537;BME280;67783;51.656;16.106;2024-01-30T18:06:27;103014.77;;;9.56;49.39
77537;BME280;67783;51.656;16.106;2024-01-30T18:09:29;103014.84;;;9.53;49.61
77537;BME280;67783;51.656;16.106;2024-01-30T18:12:32;103011.54;;;9.45;49.64
77537;BME280;67783;51.656;16.106;2024-01-30T18:15:43;103005.47;;;9.40;49.31
77537;BME280;67783;51.656;16.106;2024-01-30T18:18:45;103005.51;;;9.38;49.76
77537;BME280;67783;51.656;16.106;2024-01-30T18:21:47;103001.41;;;9.26;49.59
77537;BME280;67783;51.656;16.106;2024-01-30T18:24:48;103003.17;;;9.28;49.84
77537;BME280;67783;51.656;16.106;2024-01-30T18:27:53;103002.33;;;9.25;49.76
77537;BME280;67783;51.656;16.106;2024-01-30T18:31:04;102996.09;;;9.25;49.23
77537;BME280;67783;51.656;16.106;2024-01-30T18:34:06;102999.65;;;9.25;49.45
77537;BME280;67783;51.656;16.106;2024-01-30T18:37:07;102991.77;;;9.21;49.44
77537;BME280;67783;51.656;16.106;2024-01-30T18:40:12;102996.97;;;9.25;49.86
77537;BME280;67783;51.656;16.106;2024-01-30T18:43:13;103003.25;;;9.24;49.39
77537;BME280;67783;51.656;16.106;2024-01-30T18:46:25;102996.97;;;9.25;48.84
77537;BME280;67783;51.656;16.106;2024-01-30T18:49:26;102989.82;;;9.26;49.45
77537;BME280;67783;51.656;16.106;2024-01-30T18:52:28;102988.10;;;9.23;49.18
77537;BME280;67783;51.656;16.106;2024-01-30T18:55:33;102987.16;;;9.26;49.46